sensor_id;sensor_type;location;lat;lon;timestamp;P1;durP1;ratioP1;P2;durP2;ratioP2
81365;SDS011;70822;51.990;22.766;2023-06-22T00:10:35;16.03;;;9.27;;
81365;SDS011;70822;51.990;22.766;2023-06-22T00:56:12;14.47;;;10.07;;
81365;SDS011;70822;51.990;22.766;2023-06-22T01:11:22;12.50;;;9.60;;
81365;SDS011;70822;51.990;22.766;2023-06-22T01:42:02;12.87;;;9.83;;
81365;SDS011;70822;51.990;22.766;2023-06-22T01:57:07;11.53;;;8.47;;
81365;SDS011;70822;51.990;22.766;2023-06-22T02:27:50;11.90;;;9.07;;
81365;SDS011;70822;51.990;22.766;2023-06-22T02:42:54;14.37;;;8.87;;
81365;SDS011;70822;51.990;22.766;2023-06-22T02:57:57;16.27;;;13.43;;
81365;SDS011;70822;51.990;22.766;2023-06-22T03:13:09;12.97;;;8.60;;
81365;SDS011;70822;51.990;22.766;2023-06-22T03:43:20;19.83;;;10.03;;
81365;SDS011;70822;51.990;22.766;2023-06-22T03:58:23;16.30;;;9.90;;
81365;SDS011;70822;51.990;22.766;2023-06-22T04:45:09;15.97;;;10.60;;
81365;SDS011;70822;51.990;22.766;2023-06-22T05:00:13;26.53;;;14.27;;
81365;SDS011;70822;51.990;22.766;2023-06-22T05:15:26;13.20;;;10.30;;
81365;SDS011;70822;51.990;22.766;2023-06-22T05:46:27;16.83;;;14.73;;
81365;SDS011;70822;51.990;22.766;2023-06-22T06:01:30;16.63;;;14.83;;
81365;SDS011;70822;51.990;22.766;2023-06-22T06:16:38;19.13;;;15.57;;
81365;SDS011;70822;51.990;22.766;2023-06-22T06:31:41;17.30;;;14.67;;
81365;SDS011;70822;51.990;22.766;2023-06-22T06:46:44;14.67;;;12.83;;
81365;SDS011;70822;51.990;22.766;2023-06-22T07:01:48;14.13;;;12.73;;
81365;SDS011;70822;51.990;22.766;2023-06-22T07:16:54;14.83;;;12.57;;
81365;SDS011;70822;51.990;22.766;2023-06-22T07:32:07;17.80;;;14.00;;
81365;SDS011;70822;51.990;22.766;2023-06-22T07:47:13;15.37;;;12.53;;
81365;SDS011;70822;51.990;22.766;2023-06-22T08:02:15;14.03;;;12.17;;
81365;SDS011;70822;51.990;22.766;2023-06-22T08:17:19;17.40;;;14.00;;
81365;SDS011;70822;51.990;22.766;2023-06-22T08:32:22;17.47;;;14.90;;
81365;SDS011;70822;51.990;22.766;2023-06-22T08:47:27;18.20;;;15.00;;
81365;SDS011;70822;51.990;22.766;2023-06-22T09:02:30;19.33;;;16.77;;
81365;SDS011;70822;51.990;22.766;2023-06-22T09:17:33;21.47;;;13.17;;
81365;SDS011;70822;51.990;22.766;2023-06-22T09:32:37;16.80;;;9.53;;
81365;SDS011;70822;51.990;22.766;2023-06-22T09:47:41;37.40;;;21.87;;
81365;SDS011;70822;51.990;22.766;2023-06-22T10:02:45;39.20;;;24.30;;
81365;SDS011;70822;51.990;22.766;2023-06-22T10:17:48;26.83;;;19.90;;
81365;SDS011;70822;51.990;22.766;2023-06-22T10:32:52;20.20;;;14.97;;
81365;SDS011;70822;51.990;22.766;2023-06-22T10:47:55;26.30;;;19.17;;
81365;SDS011;70822;51.990;22.766;2023-06-22T11:02:59;22.13;;;16.50;;
81365;SDS011;70822;51.990;22.766;2023-06-22T11:18:03;17.80;;;13.47;;
81365;SDS011;70822;51.990;22.766;2023-06-22T11:33:14;17.57;;;12.40;;
81365;SDS011;70822;51.990;22.766;2023-06-22T11:48:23;16.17;;;12.57;;
81365;SDS011;70822;51.990;22.766;2023-06-22T12:03:27;19.80;;;12.17;;
81365;SDS011;70822;51.990;22.766;2023-06-22T12:18:32;16.07;;;11.60;;
81365;SDS011;70822;51.990;22.766;2023-06-22T12:33:35;10.20;;;8.00;;
81365;SDS011;70822;51.990;22.766;2023-06-22T12:48:38;12.73;;;8.53;;
81365;SDS011;70822;51.990;22.766;2023-06-22T13:03:45;11.07;;;7.67;;
81365;SDS011;70822;51.990;22.766;2023-06-22T13:18:48;11.17;;;7.53;;
81365;SDS011;70822;51.990;22.766;2023-06-22T13:33:51;11.10;;;6.70;;
81365;SDS011;70822;51.990;22.766;2023-06-22T13:49:00;7.77;;;6.13;;
81365;SDS011;70822;51.990;22.766;2023-06-22T14:19:09;7.83;;;5.20;;
81365;SDS011;70822;51.990;22.766;2023-06-22T14:34:12;6.90;;;5.07;;
81365;SDS011;70822;51.990;22.766;2023-06-22T14:49:16;7.60;;;4.27;;
81365;SDS011;70822;51.990;22.766;2023-06-22T15:04:19;6.60;;;4.57;;
81365;SDS011;70822;51.990;22.766;2023-06-22T15:19:23;5.03;;;3.87;;
81365;SDS011;70822;51.990;22.766;2023-06-22T15:34:26;6.90;;;3.70;;
81365;SDS011;70822;51.990;22.766;2023-06-22T15:49:29;8.73;;;3.63;;
81365;SDS011;70822;51.990;22.766;2023-06-22T16:04:32;4.17;;;3.30;;
81365;SDS011;70822;51.990;22.766;2023-06-22T16:19:38;6.07;;;3.70;;
81365;SDS011;70822;51.990;22.766;2023-06-22T16:49:52;4.23;;;3.50;;
81365;SDS011;70822;51.990;22.766;2023-06-22T17:04:57;5.70;;;3.73;;
81365;SDS011;70822;51.990;22.766;2023-06-22T17:20:03;5.17;;;3.67;;
81365;SDS011;70822;51.990;22.766;2023-06-22T17:35:09;6.90;;;5.60;;
81365;SDS011;70822;51.990;22.766;2023-06-22T17:50:13;10.63;;;6.57;;
81365;SDS011;70822;51.990;22.766;2023-06-22T18:20:39;12.73;;;7.90;;
81365;SDS011;70822;51.990;22.766;2023-06-22T18:35:44;10.17;;;7.60;;
81365;SDS011;70822;51.990;22.766;2023-06-22T18:50:49;10.57;;;7.53;;
81365;SDS011;70822;51.990;22.766;2023-06-22T19:05:52;11.23;;;7.83;;
81365;SDS011;70822;51.990;22.766;2023-06-22T19:36:04;10.60;;;7.53;;
81365;SDS011;70822;51.990;22.766;2023-06-22T19:51:07;11.67;;;8.03;;
81365;SDS011;70822;51.990;22.766;2023-06-22T20:06:12;36.03;;;14.10;;
81365;SDS011;70822;51.990;22.766;2023-06-22T20:21:15;12.97;;;9.07;;
81365;SDS011;70822;51.990;22.766;2023-06-22T20:36:20;16.30;;;9.37;;
81365;SDS011;70822;51.990;22.766;2023-06-22T20:51:26;12.97;;;9.40;;
81365;SDS011;70822;51.990;22.766;2023-06-22T21:06:29;16.83;;;9.13;;
81365;SDS011;70822;51.990;22.766;2023-06-22T21:21:32;14.20;;;10.57;;
81365;SDS011;70822;51.990;22.766;2023-06-22T21:36:36;11.97;;;8.60;;
81365;SDS011;70822;51.990;22.766;2023-06-22T21:51:40;14.13;;;9.00;;
81365;SDS011;70822;51.990;22.766;2023-06-22T22:06:43;16.50;;;11.03;;
81365;SDS011;70822;51.990;22.766;2023-06-22T22:21:51;15.23;;;9.00;;
81365;SDS011;70822;51.990;22.766;2023-06-22T22:36:54;13.83;;;8.17;;
81365;SDS011;70822;51.990;22.766;2023-06-22T22:51:57;17.73;;;8.83;;
81365;SDS011;70822;51.990;22.766;2023-06-22T23:07:00;12.43;;;8.07;;
81365;SDS011;70822;51.990;22.766;2023-06-22T23:22:03;10.97;;;6.60;;
81365;SDS011;70822;51.990;22.766;2023-06-22T23:37:06;12.30;;;6.50;;
81365;SDS011;70822;51.990;22.766;2023-06-22T23:52:11;11.70;;;6.77;;
